FMNM/MJN METAR and TAF weather

Enter ICAO airport designator
Station Type Date Time Source
FMNM METAR 2018/01/17 06:00 UTC NOAA

FMNM 170600Z 06008KT 9999 FEW020CB 28/20 Q1010 NOSIG


Station Type Date Time Source
FMNM Decoded METAR 2018/01/17 06:00 UTC NOAA

Majunga, Madagascar (FMNM) 15-40S 046-21E 18M
Jan 17, 2018 - 01:00 AM EST / 2018.01.17 0600 UTC
Wind: from the ENE (060 degrees) at 9 MPH (8 KT):0
Visibility: greater than 7 mile(s):0
Sky conditions: mostly clear
Weather: Cumulonimbus clouds observed
Temperature: 82 F (28 C)
Dew Point: 68 F (20 C)
Relative Humidity: 61%
Pressure (altimeter): 29.83 in. Hg (1010 hPa)
ob: FMNM 170600Z 06008KT 9999 FEW020CB 28/20 Q1010 NOSIG
cycle: 6

Station Type Date Time Source
FMNM TAF 2018/01/17 06:03 UTC NOAA

TAF FMNM 170500Z 1706/1806 36005KT 9999 SCT017CB SCT040 PROB30
TEMPO 1706/1720 4800 TSRA


Example: see airport list